Time;durP1;ratioP1;P1;durP2;ratioP2;P2;SDS_P1;SDS_P2;PMS_P1;PMS_P2;Temp;Humidity;BMP_temperature;BMP_pressure;BME280_temperature;BME280_humidity;BME280_pressure;Samples;Min_cycle;Max_cycle;Signal;HPM_P1;HPM_P2
2023/06/02 00:01:14;;;;;;;18.25;8.23;;;10.00;99.90;;;;;;5052104;28;19920;-60
2023/06/02 00:03:42;;;;;;;22.23;9.43;;;9.90;99.90;;;;;;5055322;28;20504;-60
2023/06/02 00:06:09;;;;;;;19.95;9.60;;;9.90;99.90;;;;;;5053745;28;20049;-60
2023/06/02 00:08:38;;;;;;;22.85;9.90;;;9.70;99.90;;;;;;5056554;28;20102;-60
2023/06/02 00:11:05;;;;;;;23.92;9.75;;;9.70;99.90;;;;;;5054348;28;20470;-60
2023/06/02 00:13:30;;;;;;;21.80;9.43;;;9.70;99.90;;;;;;5049839;28;20146;-60
2023/06/02 00:15:56;;;;;;;;;;;9.70;99.90;;;;;;5055402;28;20810;-60
2023/06/02 00:18:25;;;;;;;19.83;9.18;;;9.70;99.90;;;;;;5047585;28;19920;-61
2023/06/02 00:20:51;;;;;;;18.77;10.43;;;9.60;99.90;;;;;;5040972;28;20033;-58
2023/06/02 00:23:17;;;;;;;21.63;10.38;;;9.30;99.90;;;;;;5041164;28;20037;-60
2023/06/02 00:25:42;;;;;;;;;;;9.40;99.90;;;;;;5043126;28;20075;-60
2023/06/02 00:28:08;;;;;;;24.60;10.05;;;9.40;99.90;;;;;;5045764;28;20013;-60
2023/06/02 00:30:34;;;;;;;19.58;10.90;;;9.30;99.90;;;;;;5039447;28;20041;-60
2023/06/02 00:33:01;;;;;;;18.85;10.43;;;9.20;99.90;;;;;;5037839;28;20501;-58
2023/06/02 00:35:27;;;;;;;18.02;10.05;;;9.10;99.90;;;;;;5040236;28;20545;-60
2023/06/02 00:37:53;;;;;;;27.38;11.43;;;9.20;99.90;;;;;;5044156;28;20823;-59
2023/06/02 00:40:20;;;;;;;18.65;10.25;;;9.20;99.90;;;;;;5040425;28;20052;-61
2023/06/02 00:42:45;;;;;;;23.02;10.75;;;9.10;99.90;;;;;;5044589;28;20040;-61
2023/06/02 00:45:11;;;;;;;;;;;9.00;99.90;;;;;;5043189;28;20045;-61
2023/06/02 00:47:37;;;;;;;20.20;9.35;;;8.90;99.90;;;;;;5038876;28;19995;-60
2023/06/02 00:50:02;;;;;;;;;;;9.00;99.90;;;;;;5041022;28;20132;-59
2023/06/02 00:52:30;;;;;;;16.05;9.13;;;9.00;99.90;;;;;;5037836;28;19917;-56
2023/06/02 00:54:56;;;;;;;21.08;10.43;;;9.00;99.90;;;;;;5038557;28;20866;-59
2023/06/02 00:57:28;;;;;;;;;;;9.00;99.90;;;;;;5043548;28;20135;-60
2023/06/02 00:59:56;;;;;;;17.65;9.70;;;9.00;99.90;;;;;;5034000;28;20288;-59
2023/06/02 01:02:22;;;;;;;19.85;9.25;;;9.10;99.90;;;;;;5037043;28;20049;-60
2023/06/02 01:04:50;;;;;;;19.15;9.88;;;9.00;99.90;;;;;;5022818;28;20044;-61
2023/06/02 01:07:23;;;;;;;14.98;8.50;;;9.10;99.90;;;;;;5040954;28;20041;-60
2023/06/02 01:09:55;;;;;;;13.70;8.77;;;9.20;99.90;;;;;;5035819;28;20066;-59
2023/06/02 01:12:22;;;;;;;13.35;8.00;;;9.30;99.90;;;;;;5040228;28;20740;-61
2023/06/02 01:14:48;;;;;;;15.02;8.48;;;9.30;99.90;;;;;;5037689;28;20036;-61
2023/06/02 01:17:14;;;;;;;16.10;8.88;;;9.30;99.90;;;;;;5039223;28;20520;-61
2023/06/02 01:19:40;;;;;;;;;;;9.10;99.90;;;;;;5042711;28;20041;-60
2023/06/02 01:22:09;;;;;;;18.88;8.93;;;9.00;99.90;;;;;;5031605;28;19927;-59
2023/06/02 01:24:40;;;;;;;12.68;7.85;;;8.90;99.90;;;;;;5038856;28;20135;-58
2023/06/02 01:27:12;;;;;;;13.68;7.40;;;8.90;99.90;;;;;;5040642;28;20041;-61
2023/06/02 01:29:38;;;;;;;13.07;8.20;;;8.80;99.90;;;;;;5031817;28;20076;-61
2023/06/02 01:32:18;;;;;;;13.00;7.45;;;8.90;99.90;;;;;;5034284;28;20025;-60
2023/06/02 01:34:47;;;;;;;17.08;7.45;;;8.80;99.90;;;;;;5034258;28;20584;-61
2023/06/02 01:37:14;;;;;;;13.50;7.43;;;8.90;99.90;;;;;;5039850;28;20092;-59
2023/06/02 01:39:41;;;;;;;10.52;7.38;;;8.90;99.90;;;;;;5042685;28;20037;-59
2023/06/02 01:42:08;;;;;;;19.98;10.00;;;9.00;99.90;;;;;;5040379;28;20119;-59
2023/06/02 01:44:35;;;;;;;16.50;9.02;;;8.70;99.90;;;;;;5041578;28;20037;-59
2023/06/02 01:47:02;;;;;;;12.85;7.45;;;8.60;99.90;;;;;;5042391;28;20068;-60
2023/06/02 01:49:27;;;;;;;18.40;8.05;;;8.60;99.90;;;;;;5042462;28;20098;-61
2023/06/02 01:51:54;;;;;;;;;;;8.60;99.90;;;;;;5036179;28;20037;-63
2023/06/02 01:54:20;;;;;;;12.63;7.40;;;8.60;99.90;;;;;;5031227;28;19927;-60
2023/06/02 01:56:46;;;;;;;15.73;7.88;;;8.70;99.90;;;;;;5040417;28;20060;-60
2023/06/02 01:59:12;;;;;;;;;;;8.70;99.90;;;;;;5033830;28;20090;-60
2023/06/02 02:01:40;;;;;;;17.42;8.98;;;8.50;99.90;;;;;;5039595;28;19967;-61
2023/06/02 02:04:06;;;;;;;18.60;9.02;;;8.50;99.90;;;;;;5041032;28;20037;-60
2023/06/02 02:06:32;;;;;;;16.95;8.13;;;8.40;99.90;;;;;;5042705;28;20049;-60
2023/06/02 02:08:58;;;;;;;;;;;8.60;99.90;;;;;;5037461;28;20033;-60
2023/06/02 02:11:25;;;;;;;14.50;9.18;;;8.60;99.90;;;;;;5034929;28;19921;-59
2023/06/02 02:13:51;;;;;;;15.40;9.10;;;8.60;99.90;;;;;;5034706;28;20041;-61
2023/06/02 02:16:16;;;;;;;;;;;8.60;99.90;;;;;;5043118;28;20068;-60
2023/06/02 02:18:43;;;;;;;15.95;9.13;;;8.60;99.90;;;;;;5042680;28;19963;-59
2023/06/02 02:21:10;;;;;;;18.23;10.65;;;8.60;99.90;;;;;;5041826;28;20052;-61
2023/06/02 02:23:35;;;;;;;19.25;10.13;;;8.40;99.90;;;;;;5031861;28;20034;-61
2023/06/02 02:26:01;;;;;;;;;;;8.40;99.90;;;;;;5041033;28;20375;-61
2023/06/02 02:28:27;;;;;;;19.50;9.40;;;8.40;99.90;;;;;;5034659;28;19924;-62
2023/06/02 02:30:53;;;;;;;18.38;9.57;;;8.30;99.90;;;;;;5040989;28;20610;-59
2023/06/02 02:33:19;;;;;;;;;;;8.30;99.90;;;;;;5035968;28;20094;-60
2023/06/02 02:35:45;;;;;;;18.58;9.80;;;8.30;99.90;;;;;;5042528;28;19917;-60
2023/06/02 02:38:11;;;;;;;;;;;8.30;99.90;;;;;;5035053;28;20052;-57
2023/06/02 02:40:36;;;;;;;19.17;9.60;;;8.30;99.90;;;;;;5038685;28;20023;-61
2023/06/02 02:43:02;;;;;;;21.98;10.25;;;8.40;99.90;;;;;;5035047;28;20048;-60
2023/06/02 02:45:27;;;;;;;;;;;8.30;99.90;;;;;;5039094;28;20049;-59
2023/06/02 02:47:53;;;;;;;21.05;10.20;;;8.20;99.90;;;;;;5040066;28;19928;-61
2023/06/02 02:50:19;;;;;;;;;;;;;;;;;;5038616;28;20036;-61
2023/06/02 02:52:45;;;;;;;24.25;10.02;;;;;;;;;;5038659;28;19928;-58
2023/06/02 02:55:11;;;;;;;;;;;;;;;;;;5037209;28;20037;-59
2023/06/02 02:57:37;;;;;;;20.80;9.27;;;;;;;;;;5038673;28;20022;-58
2023/06/02 03:00:10;;;;;;;20.75;11.80;;;;;;;;;;5035497;28;20045;-58
2023/06/02 03:02:36;;;;;;;23.15;11.88;;;;;;;;;;5035292;28;20505;-61
2023/06/02 03:05:03;;;;;;;25.00;10.57;;;;;;;;;;5033053;28;20037;-61
2023/06/02 03:07:29;;;;;;;21.40;9.73;;;;;;;;;;5040566;28;20186;-60
2023/06/02 03:09:56;;;;;;;21.77;9.85;;;;;;;;;;5036398;28;20505;-59
2023/06/02 03:12:22;;;;;;;21.73;10.13;;;;;;;;;;5035499;28;20033;-61
2023/06/02 03:14:48;;;;;;;;;;;;;;;;;;5038787;28;20485;-60
2023/06/02 03:17:14;;;;;;;24.27;9.82;;;;;;;;;;5035123;28;19924;-61
2023/06/02 03:19:40;;;;;;;16.83;9.45;;;;;;;;;;5038065;28;20029;-60
2023/06/02 03:22:06;;;;;;;25.17;10.15;;;;;;;;;;5028936;28;20033;-61
2023/06/02 03:24:32;;;;;;;32.38;10.27;;;;;;;;;;5039990;28;20033;-60
2023/06/02 03:26:59;;;;;;;23.13;10.38;;;;;;;;;;5034810;28;20029;-61
2023/06/02 03:29:25;;;;;;;21.52;10.00;;;;;;;;;;5039735;28;20532;-59
2023/06/02 03:31:51;;;;;;;;;;;;;;;;;;5035659;28;20049;-59
2023/06/02 03:34:17;;;;;;;15.55;8.48;;;;;;;;;;5042966;28;19927;-60
2023/06/02 03:36:43;;;;;;;22.38;9.88;;;;;;;;;;5036541;28;20501;-61
2023/06/02 03:39:10;;;;;;;19.70;9.73;;;;;;;;;;5041161;28;20118;-60
2023/06/02 03:41:37;;;;;;;15.68;9.02;;;;;;;;;;5040279;28;20060;-58
2023/06/02 03:44:03;;;;;;;21.83;9.98;;;;;;;;;;5036153;28;20039;-62
2023/06/02 03:46:30;;;;;;;18.70;9.18;;;;;;;;;;5037667;28;20527;-62
2023/06/02 03:48:56;;;;;;;18.63;9.85;;;;;;;;;;5042352;28;20036;-61
2023/06/02 03:51:22;;;;;;;23.23;10.30;;;;;;;;;;5033576;28;20029;-61
2023/06/02 03:53:51;;;;;;;21.52;10.20;;;;;;;;;;5033419;28;20167;-58
2023/06/02 03:56:19;;;;;;;25.15;10.15;;;;;;;;;;5039943;28;20037;-61
2023/06/02 03:58:45;;;;;;;25.27;10.93;;;;;;;;;;5039901;28;20047;-61
2023/06/02 04:01:12;;;;;;;;;;;;;;;;;;5036648;28;20116;-62
2023/06/02 04:03:41;;;;;;;19.67;10.27;;;;;;;;;;5043166;28;19925;-61
2023/06/02 04:06:07;;;;;;;21.40;10.30;;;;;;;;;;5038970;28;20186;-59
2023/06/02 04:08:34;;;;;;;21.48;11.50;;;;;;;;;;5042036;28;20059;-62
2023/06/02 04:11:00;;;;;;;31.67;10.70;;;;;;;;;;5037220;28;20061;-61
2023/06/02 04:13:28;;;;;;;23.65;9.93;;;;;;;;;;5034501;28;20145;-61
2023/06/02 04:15:54;;;;;;;25.75;10.70;;;;;;;;;;5034015;28;20132;-62
2023/06/02 04:18:20;;;;;;;;;;;;;;;;;;5041472;28;20036;-61
2023/06/02 04:20:46;;;;;;;26.10;11.05;;;;;;;;;;5034808;28;19917;-62
2023/06/02 04:23:12;;;;;;;26.98;11.27;;;;;;;;;;5044327;28;20070;-62
2023/06/02 04:25:38;;;;;;;;;;;;;;;;;;5040858;28;20804;-62
2023/06/02 04:28:05;;;;;;;22.80;10.77;;;;;;;;;;5035078;28;19947;-62
2023/06/02 04:30:31;;;;;;;25.45;11.50;;;;;;;;;;5037395;28;20110;-60
2023/06/02 04:32:57;;;;;;;18.10;9.20;;;;;;;;;;5043095;28;20083;-59
2023/06/02 04:35:23;;;;;;;;;;;;;;;;;;5040002;28;20653;-60
2023/06/02 04:37:49;;;;;;;22.50;11.02;;;;;;;;;;5042611;28;19921;-61
2023/06/02 04:40:15;;;;;;;;;;;;;;;;;;5040325;28;20056;-59
2023/06/02 04:42:41;;;;;;;20.37;9.17;;;;;;;;;;5040858;28;19916;-61
2023/06/02 04:45:11;;;;;;;26.65;9.63;;;;;;;;;;5041370;28;20094;-60
2023/06/02 04:47:38;;;;;;;16.27;8.35;;;;;;;;;;5041717;28;20045;-59
2023/06/02 04:50:06;;;;;;;19.58;9.50;;;;;;;;;;5037723;28;20037;-60
2023/06/02 04:52:32;;;;;;;19.00;8.50;;;;;;;;;;5040108;28;20116;-60
2023/06/02 04:54:58;;;;;;;20.50;8.93;;;;;;;;;;5030027;28;20044;-59
2023/06/02 04:57:24;;;;;;;;;;;;;;;;;;5038708;28;20045;-62
2023/06/02 04:59:50;;;;;;;29.10;9.20;;;;;;;;;;5040853;28;19920;-60
2023/06/02 05:02:16;;;;;;;;;;;;;;;;;;5040832;28;20707;-60
2023/06/02 05:04:43;;;;;;;17.70;8.27;;;;;;;;;;5039770;28;19921;-58
2023/06/02 05:07:08;;;;;;;20.40;8.40;;;;;;;;;;5044616;28;20069;-58
2023/06/02 05:09:34;;;;;;;;;;;;;;;;;;5038839;28;20489;-60
2023/06/02 05:12:00;;;;;;;23.13;9.15;;;;;;;;;;5039029;28;20134;-60
2023/06/02 05:14:27;;;;;;;;;;;;;;;;;;5042267;28;20450;-56
2023/06/02 05:16:54;;;;;;;19.27;8.90;;;;;;;;;;5041004;28;20090;-59
2023/06/02 05:19:20;;;;;;;34.55;9.52;;;;;;;;;;5044430;28;20051;-59
2023/06/02 05:21:46;;;;;;;26.27;9.13;;;;;;;;;;5030653;28;20132;-60
2023/06/02 05:24:12;;;;;;;;;;;;;;;;;;5035738;28;20115;-58
2023/06/02 05:26:38;;;;;;;24.65;8.75;;;;;;;;;;5041872;28;19924;-59
2023/06/02 05:29:04;;;;;;;;;;;;;;;;;;5044763;28;20428;-57
2023/06/02 05:31:30;;;;;;;20.60;6.47;;;;;;;;;;5032291;28;20008;-61
2023/06/02 05:33:56;;;;;;;24.25;7.65;;;;;;;;;;5036151;28;20037;-57
2023/06/02 05:36:22;;;;;;;27.63;7.30;;;;;;;;;;5031971;28;20073;-58
2023/06/02 05:38:48;;;;;;;;;;;;;;;;;;5032664;28;20091;-60
2023/06/02 05:41:14;;;;;;;19.37;7.07;;;;;;;;;;5036978;28;20523;-60
2023/06/02 05:43:40;;;;;;;19.50;6.60;;;;;;;;;;5039366;28;20033;-59
2023/06/02 05:46:06;;;;;;;;;;;;;;;;;;5037453;28;20037;-60
2023/06/02 05:48:32;;;;;;;22.02;6.25;;;;;;;;;;5040696;28;19951;-60
2023/06/02 05:50:58;;;;;;;21.30;6.68;;;;;;;;;;5032465;28;20837;-60
2023/06/02 05:53:24;;;;;;;22.70;6.75;;;;;;;;;;5031559;28;20041;-60
2023/06/02 05:55:50;;;;;;;;;;;;;;;;;;5038063;28;20194;-60
2023/06/02 05:58:16;;;;;;;15.57;6.32;;;;;;;;;;5038443;28;20007;-60
2023/06/02 06:00:42;;;;;;;17.42;7.53;;;;;;;;;;5036590;28;20040;-58
2023/06/02 06:03:08;;;;;;;;;;;;;;;;;;5041380;28;20041;-60
2023/06/02 06:05:34;;;;;;;30.60;8.73;;;;;;;;;;5038222;28;19929;-61
2023/06/02 06:08:00;;;;;;;22.33;7.45;;;;;;;;;;5041211;28;20664;-58
2023/06/02 06:10:26;;;;;;;;;;;;;;;;;;5037415;28;20067;-59
2023/06/02 06:12:52;;;;;;;20.90;6.72;;;;;;;;;;5036339;28;19924;-60
2023/06/02 06:15:18;;;;;;;15.70;7.20;;;;;;;;;;5037740;28;20144;-59
2023/06/02 06:17:48;;;;;;;18.98;7.07;;;;;;;;;;5039020;28;20047;-57
2023/06/02 06:20:15;;;;;;;19.95;7.05;;;;;;;;;;5040039;28;20387;-60
2023/06/02 06:22:41;;;;;;;20.63;6.45;;;;;;;;;;5030309;28;20855;-59
2023/06/02 06:25:08;;;;;;;19.13;7.57;;;;;;;;;;5037511;28;20033;-60
2023/06/02 06:27:34;;;;;;;26.67;8.55;;;;;;;;;;5043328;28;20056;-60
2023/06/02 06:30:00;;;;;;;;;;;;;;;;;;5036932;28;20067;-60
2023/06/02 06:32:26;;;;;;;20.23;8.18;;;;;;;;;;5036696;28;19920;-59
2023/06/02 06:34:52;;;;;;;26.15;8.50;;;;;;;;;;5030676;28;20041;-60
2023/06/02 06:37:18;;;;;;;23.83;8.30;;;;;;;;;;5041966;28;20043;-60
2023/06/02 06:39:44;;;;;;;25.10;8.23;;;;;;;;;;5034889;28;20044;-61
2023/06/02 06:42:10;;;;;;;25.30;7.75;;;;;;;;;;5040811;28;20124;-58
2023/06/02 06:44:36;;;;;;;;;;;;;;;;;;5035907;28;20548;-61
2023/06/02 06:47:02;;;;;;;25.75;8.45;;;;;;;;;;5041909;28;19925;-59
2023/06/02 06:49:28;;;;;;;25.90;8.40;;;;;;;;;;5035015;28;20069;-61
2023/06/02 06:51:54;;;;;;;;;;;;;;;;;;5038978;28;20040;-61
2023/06/02 06:54:20;;;;;;;22.77;7.70;;;;;;;;;;5033497;28;20300;-62
2023/06/02 06:56:46;;;;;;;30.20;8.65;;;;;;;;;;5042886;28;20048;-61
2023/06/02 06:59:12;;;;;;;;;;;;;;;;;;5032611;28;20037;-62
2023/06/02 07:01:39;;;;;;;22.17;7.63;;;;;;;;;;5038417;28;19916;-62
2023/06/02 07:04:05;;;;;;;23.83;7.90;;;;;;;;;;5032324;28;20068;-61
2023/06/02 07:06:31;;;;;;;28.35;7.45;;;;;;;;;;5038910;28;20045;-63
2023/06/02 07:08:57;;;;;;;27.25;7.80;;;;;;;;;;5029010;28;20033;-61
2023/06/02 07:11:23;;;;;;;24.00;8.73;;;;;;;;;;5039392;28;20116;-60
2023/06/02 07:13:49;;;;;;;;;;;;;;;;;;5031572;28;20056;-62
2023/06/02 07:16:15;;;;;;;29.42;9.32;;;;;;;;;;5039137;28;19943;-60
2023/06/02 07:18:41;;;;;;;;;;;;;;;;;;5042317;28;20113;-61
2023/06/02 07:21:07;;;;;;;17.23;6.15;;;;;;;;;;5041188;28;20015;-60
2023/06/02 07:23:33;;;;;;;20.23;7.38;;;;;;;;;;5032420;28;20124;-60
2023/06/02 07:25:59;;;;;;;21.35;7.50;;;;;;;;;;5041910;28;20049;-60
2023/06/02 07:28:25;;;;;;;;;;;;;;;;;;5038268;28;20076;-61
2023/06/02 07:30:52;;;;;;;22.25;6.90;;;;;;;;;;5041164;28;20396;-60
2023/06/02 07:33:18;;;;;;;25.10;8.48;;;;;;;;;;5039955;28;20056;-60
2023/06/02 07:35:44;;;;;;;23.20;7.88;;;;;;;;;;5044888;28;20040;-61
2023/06/02 07:38:11;;;;;;;22.75;7.13;;;;;;;;;;5041058;28;20088;-60
2023/06/02 07:40:36;;;;;;;;;;;;;;;;;;5043185;28;20049;-61
2023/06/02 07:43:03;;;;;;;25.63;7.20;;;;;;;;;;5040503;28;19917;-60
2023/06/02 07:45:29;;;;;;;23.70;6.75;;;;;;;;;;5037445;28;20036;-60
2023/06/02 07:47:55;;;;;;;25.23;7.13;;;;;;;;;;5041329;28;20037;-60
2023/06/02 07:50:21;;;;;;;25.13;8.43;;;;;;;;;;5041334;28;20111;-62
2023/06/02 07:52:47;;;;;;;;;;;;;;;;;;5042026;28;20045;-59
2023/06/02 07:55:13;;;;;;;31.60;6.88;;;;;;;;;;5036296;28;19921;-61
2023/06/02 07:57:39;;;;;;;20.98;5.40;;;;;;;;;;5042646;28;20063;-61
2023/06/02 08:00:09;;;;;;;13.98;5.13;;;;;;;;;;5035565;28;20029;-60
2023/06/02 08:02:35;;;;;;;21.85;5.32;;;;;;;;;;5040115;28;20069;-61
2023/06/02 08:05:01;;;;;;;20.58;5.70;;;;;;;;;;5038509;28;20493;-61
2023/06/02 08:07:27;;;;;;;;;;;;;;;;;;5045665;28;20041;-60
2023/06/02 08:09:53;;;;;;;21.98;6.70;;;;;;;;;;5041611;28;19921;-60
2023/06/02 08:12:20;;;;;;;24.52;6.80;;;;;;;;;;5042930;28;20099;-60
2023/06/02 08:14:46;;;;;;;15.75;4.93;;;;;;;;;;5035686;28;20582;-58
2023/06/02 08:17:12;;;;;;;;;;;;;;;;;;5047140;28;20417;-61
2023/06/02 08:19:38;;;;;;;16.58;5.22;;;;;;;;;;5044198;28;20482;-61
2023/06/02 08:22:04;;;;;;;18.38;4.90;;;;;;;;;;5043924;28;20037;-61
2023/06/02 08:24:31;;;;;;;22.02;5.32;;;;;;;;;;5037577;28;20041;-61
2023/06/02 08:27:00;;;;;;;26.73;6.03;;;;;;;;;;5044539;28;20186;-60
2023/06/02 08:29:26;;;;;;;18.35;4.90;;;;;;;;;;5035641;28;20052;-61
2023/06/02 08:31:53;;;;;;;18.77;4.97;;;;;;;;;;5039862;28;20314;-59
2023/06/02 08:34:20;;;;;;;15.63;5.20;;;;;;;;;;5036994;28;20044;-61
2023/06/02 08:36:49;;;;;;;18.83;5.95;;;;;;;;;;5045462;28;20048;-60
2023/06/02 08:39:15;;;;;;;18.58;5.28;;;;;;;;;;5038705;28;20784;-60
2023/06/02 08:41:47;;;;;;;17.45;3.72;;;;;;;;;;5045344;28;20128;-60
2023/06/02 08:44:13;;;;;;;19.73;5.03;;;;;;;;;;5033421;28;20036;-59
2023/06/02 08:46:39;;;;;;;17.25;4.13;;;;;;;;;;5041244;28;20125;-61
2023/06/02 08:49:05;;;;;;;;;;;;;;;;;;5038492;28;20037;-60
2023/06/02 08:51:36;;;;;;;17.13;5.13;;;;;;;;;;5043515;28;19993;-60
2023/06/02 08:54:03;;;;;;;15.93;4.10;;;;;;;;;;5036755;28;20540;-61
2023/06/02 08:56:29;;;;;;;14.77;5.10;;;;;;;;;;5037456;28;20045;-61
2023/06/02 08:58:55;;;;;;;13.50;4.97;;;;;;;;;;5045594;28;20102;-60
2023/06/02 09:01:21;;;;;;;20.92;5.03;;;;;;;;;;5041899;28;20041;-61
2023/06/02 09:03:47;;;;;;;;;;;;;;;;;;5037815;28;20064;-61
2023/06/02 09:06:17;;;;;;;23.20;5.65;;;;;;;;;;5044149;28;19974;-60
2023/06/02 09:09:00;;;;;;;17.27;5.78;;;;;;;;;;5038184;28;20049;-60
2023/06/02 09:11:29;;;;;;;18.40;5.25;;;;;;;;;;5043603;28;20104;-59
2023/06/02 09:13:55;;;;;;;25.45;5.90;;;;;;;;;;5028103;28;20036;-60
2023/06/02 09:16:22;;;;;;;17.90;4.90;;;;;;;;;;5043222;28;20037;-60
2023/06/02 09:18:59;;;;;;;17.27;5.55;;;;;;;;;;5043660;28;20653;-61
2023/06/02 09:21:53;;;;;;;14.73;5.18;;;;;;;;;;5047968;28;20037;-59
2023/06/02 09:24:32;;;;;;;17.65;5.32;;;;;;;;;;5029139;28;20555;-62
2023/06/02 09:27:01;;;;;;;19.75;5.55;;;;;;;;;;5040551;28;20519;-62
2023/06/02 09:29:28;;;;;;;12.85;4.68;;;;;;;;;;5040920;28;20049;-60
2023/06/02 09:31:56;;;;;;;19.23;5.43;;;;;;;;;;5059656;28;20043;-63
2023/06/02 09:34:23;;;;;;;17.20;4.60;;;;;;;;;;5066643;28;20032;-62
2023/06/02 09:36:53;;;;;;;21.75;6.00;;;;;;;;;;5062864;28;20032;-64
2023/06/02 09:39:33;;;;;;;15.82;5.22;;;;;;;;;;5068646;28;20032;-64
2023/06/02 09:41:59;;;;;;;20.75;5.53;;;;;;;;;;5064500;28;20067;-63
2023/06/02 09:44:26;;;;;;;18.63;5.13;;;;;;;;;;5062156;28;20036;-64
2023/06/02 09:46:52;;;;;;;12.65;5.05;;;;;;;;;;5063919;28;20205;-64
2023/06/02 09:49:18;;;;;;;30.65;6.15;;;;;;;;;;5065243;28;20558;-63
2023/06/02 09:51:44;;;;;;;;;;;;;;;;;;5054158;28;20047;-63
2023/06/02 09:54:11;;;;;;;16.67;5.53;;;;;;;;;;5062996;28;19916;-64
2023/06/02 09:56:38;;;;;;;16.05;5.85;;;;;;;;;;5053903;28;20855;-64
2023/06/02 09:59:05;;;;;;;20.20;5.32;;;;;;;;;;5057964;28;20115;-62
2023/06/02 10:01:32;;;;;;;21.00;5.47;;;;;;;;;;5054978;28;20049;-63
2023/06/02 10:03:58;;;;;;;15.43;4.97;;;;;;;;;;5059980;28;20098;-65
2023/06/02 10:06:24;;;;;;;13.55;4.13;;;;;;;;;;5066872;28;20109;-64
2023/06/02 10:08:51;;;;;;;;;;;;;;;;;;5072718;28;20036;-64
2023/06/02 10:11:40;;;;;;;12.90;4.20;;;;;;;;;;5056408;28;20390;-64
2023/06/02 10:14:09;;;;;;;10.38;4.22;;;;;;;;;;5049242;28;20047;-64
2023/06/02 10:16:42;;;;;;;22.60;5.20;;;;;;;;;;5052129;28;20043;-62
2023/06/02 10:19:27;;;;;;;20.63;4.65;;;;;;;;;;5066281;28;20115;-62
2023/06/02 10:22:06;;;;;;;12.80;4.18;;;;;;;;;;5047787;28;20755;-62
2023/06/02 10:24:32;;;;;;;16.65;4.35;;;;;;;;;;5060866;28;20036;-62
2023/06/02 10:26:58;;;;;;;;;;;;;;;;;;5060759;28;20037;-61
2023/06/02 10:29:25;;;;;;;16.10;4.35;;;;;;;;;;5061289;28;19959;-62
2023/06/02 10:31:51;;;;;;;17.73;4.95;;;;;;;;;;5056549;28;20040;-60
2023/06/02 10:34:36;;;;;;;17.25;4.80;;;;;;;;;;5062307;28;20060;-61
2023/06/02 10:37:10;;;;;;;26.77;6.78;;;;;;;;;;5057328;28;20143;-61
2023/06/02 10:39:39;;;;;;;19.73;5.10;;;;;;;;;;5057027;28;20484;-62
2023/06/02 10:42:06;;;;;;;12.05;4.28;;;;;;;;;;5058135;28;20036;-60
2023/06/02 10:44:32;;;;;;;15.75;4.22;;;;;;;;;;5060063;28;20083;-61
2023/06/02 10:47:17;;;;;;;13.85;3.83;;;;;;;;;;5050685;28;20091;-60
2023/06/02 10:49:55;;;;;;;21.33;4.20;;;;;;;;;;5050304;28;20124;-60
2023/06/02 10:52:24;;;;;;;14.98;5.03;;;;;;;;;;5050083;28;20037;-59
2023/06/02 10:55:11;;;;;;;19.00;3.90;;;;;;;;;;5059856;28;20115;-61
2023/06/02 10:57:49;;;;;;;17.75;4.45;;;;;;;;;;5049597;28;20058;-62
2023/06/02 11:00:36;;;;;;;14.50;4.07;;;;;;;;;;5056891;28;20089;-61
2023/06/02 11:03:02;;;;;;;14.85;4.57;;;;;;;;;;5055758;28;20116;-60
2023/06/02 11:05:29;;;;;;;11.93;3.42;;;;;;;;;;5050298;28;20052;-62
2023/06/02 11:08:11;;;;;;;15.93;3.75;;;;;;;;;;5053240;28;20047;-62
2023/06/02 11:10:41;;;;;;;10.30;3.55;;;;;;;;;;5054399;28;20048;-63
2023/06/02 11:13:07;;;;;;;8.48;3.33;;;;;;;;;;5061497;28;20044;-61
2023/06/02 11:15:33;;;;;;;;;;;;;;;;;;5058768;28;20041;-61
2023/06/02 11:18:01;;;;;;;19.50;4.85;;;;;;;;;;5062160;28;19927;-62
2023/06/02 11:20:34;;;;;;;17.50;3.72;;;;;;;;;;5061996;28;20041;-62
2023/06/02 11:23:04;;;;;;;14.68;4.60;;;;;;;;;;5058135;28;20033;-60
2023/06/02 11:25:31;;;;;;;10.25;4.25;;;;;;;;;;5056269;28;20147;-61
2023/06/02 11:27:57;;;;;;;20.05;4.50;;;;;;;;;;5057948;28;20760;-61
2023/06/02 11:30:23;;;;;;;;;;;;;;;;;;5053977;28;20068;-61
2023/06/02 11:32:49;;;;;;;13.88;3.72;;;;;;;;;;5056495;28;19975;-61
2023/06/02 11:35:16;;;;;;;10.48;3.85;;;;;;;;;;5059785;28;20060;-62
2023/06/02 11:37:43;;;;;;;18.77;5.32;;;;;;;;;;5060112;28;20106;-61
2023/06/02 11:40:11;;;;;;;15.50;4.78;;;;;;;;;;5053638;28;20033;-62
2023/06/02 11:42:38;;;;;;;20.92;4.28;;;;;;;;;;5058576;28;20048;-61
2023/06/02 11:45:05;;;;;;;16.65;4.18;;;;;;;;;;5058722;28;20069;-62
2023/06/02 11:47:31;;;;;;;15.55;4.85;;;;;;;;;;5059721;28;20520;-61
2023/06/02 11:49:57;;;;;;;17.65;4.82;;;;;;;;;;5057115;28;20044;-62
2023/06/02 11:52:23;;;;;;;;;;;;;;;;;;5060681;28;20086;-61
2023/06/02 11:54:50;;;;;;;22.48;4.97;;;;;;;;;;5057143;28;19924;-61
2023/06/02 11:57:29;;;;;;;11.45;3.75;;;;;;;;;;5058257;28;20056;-61
2023/06/02 12:00:06;;;;;;;12.35;4.43;;;;;;;;;;5050843;28;20067;-62
2023/06/02 12:02:33;;;;;;;21.92;4.70;;;;;;;;;;5057271;28;20159;-60
2023/06/02 12:04:59;;;;;;;22.52;4.28;;;;;;;;;;5058057;28;20412;-61
2023/06/02 12:07:25;;;;;;;;;;;;;;;;;;5062891;28;20902;-60
2023/06/02 12:09:51;;;;;;;17.47;4.63;;;;;;;;;;5052745;28;19974;-61
2023/06/02 12:12:18;;;;;;;;;;;;;;;;;;5058999;28;20123;-61
2023/06/02 12:14:44;;;;;;;18.27;4.07;;;;;;;;;;5059589;28;20400;-60
2023/06/02 12:17:10;;;;;;;;;;;;;;;;;;5059292;28;20053;-61
2023/06/02 12:19:36;;;;;;;16.80;4.22;;;;;;;;;;5061314;28;19947;-61
2023/06/02 12:22:01;;;;;;;;;;;;;;;;;;5062893;28;20071;-62
2023/06/02 12:24:32;;;;;;;20.33;4.47;;;;;;;;;;5065220;28;20392;-62
2023/06/02 12:26:58;;;;;;;13.70;4.25;;;;;;;;;;5061027;28;20712;-62
2023/06/02 12:29:24;;;;;;;;;;;;;;;;;;5066056;28;20527;-61
2023/06/02 12:32:01;;;;;;;9.30;3.72;;;;;;;;;;5059834;28;19912;-62
2023/06/02 12:34:30;;;;;;;18.77;3.97;;;;;;;;;;5057821;28;20037;-62
2023/06/02 12:36:56;;;;;;;12.77;3.67;;;;;;;;;;5068176;28;20093;-61
2023/06/02 12:39:23;;;;;;;14.57;3.70;;;;;;;;;;5059068;28;20036;-61
2023/06/02 12:41:50;;;;;;;13.18;3.35;;;;;;;;;;5061901;28;20075;-60
2023/06/02 12:44:16;;;;;;;9.23;3.55;;;;;;;;;;5062873;28;20028;-61
2023/06/02 12:46:42;;;;;;;11.57;4.00;;;;;;;;;;5059620;28;20428;-61
2023/06/02 12:49:09;;;;;;;;;;;;;;;;;;5058959;28;20063;-62
2023/06/02 12:51:35;;;;;;;15.02;4.05;;;;;;;;;;5066124;28;20396;-62
2023/06/02 12:54:01;;;;;;;15.48;4.15;;;;;;;;;;5072671;28;20046;-62
2023/06/02 12:56:27;;;;;;;8.75;2.75;;;;;;;;;;5069725;28;20044;-61
2023/06/02 12:58:54;;;;;;;12.60;3.20;;;;;;;;;;5076173;28;20115;-60
2023/06/02 13:01:24;;;;;;;13.68;3.83;;;;;;;;;;4991672;28;20041;-61
2023/06/02 13:03:52;;;;;;;12.73;3.50;;;;;;;;;;5030860;28;20128;-62
2023/06/02 13:06:18;;;;;;;10.23;3.05;;;;;;;;;;5041788;28;20048;-64
2023/06/02 13:08:44;;;;;;;12.63;3.08;;;;;;;;;;5030800;28;20036;-64
2023/06/02 13:11:11;;;;;;;18.42;4.18;;;;;;;;;;5038887;28;20115;-63
2023/06/02 13:18:47;;;;;;;16.07;3.27;;;15.00;97.60;;;;;;5072933;27;20374;-61
2023/06/02 13:21:13;;;;;;;25.50;4.35;;;14.90;97.70;;;;;;5099282;28;20043;-62
2023/06/02 13:23:40;;;;;;;15.80;3.20;;;14.90;99.20;;;;;;5100916;28;20560;-62
2023/06/02 13:26:05;;;;;;;11.85;3.65;;;14.80;98.50;;;;;;5102492;28;20036;-61
2023/06/02 13:28:31;;;;;;;;;;;14.70;97.80;;;;;;5096485;28;20040;-62
2023/06/02 13:30:58;;;;;;;14.77;3.35;;;14.80;98.50;;;;;;5100002;27;19922;-62
2023/06/02 13:33:24;;;;;;;17.35;2.72;;;14.90;98.60;;;;;;5037250;27;20062;-63
2023/06/02 13:35:49;;;;;;;;;;;15.10;98.20;;;;;;5074936;28;20067;-60
2023/06/02 13:38:15;;;;;;;15.65;2.95;;;15.40;96.60;;;;;;5085077;28;19927;-63
2023/06/02 13:40:41;;;;;;;;;;;15.50;95.90;;;;;;5101621;28;20040;-62
2023/06/02 13:43:06;;;;;;;27.38;3.70;;;15.40;96.70;;;;;;5101689;28;19924;-61
2023/06/02 13:45:32;;;;;;;16.48;3.25;;;15.40;96.40;;;;;;5099915;28;20073;-62
2023/06/02 13:47:57;;;;;;;;;;;15.20;96.90;;;;;;5101995;28;20066;-62
2023/06/02 13:50:23;;;;;;;17.67;2.92;;;15.10;98.30;;;;;;5100735;28;19956;-61
2023/06/02 13:52:49;;;;;;;17.10;3.47;;;15.10;97.70;;;;;;5097641;28;20053;-62
2023/06/02 13:55:14;;;;;;;;;;;15.00;97.80;;;;;;5092451;28;20135;-62
2023/06/02 13:57:40;;;;;;;17.60;3.15;;;15.00;97.20;;;;;;5095482;28;19920;-62
2023/06/02 14:00:07;;;;;;;8.35;2.97;;;15.20;98.30;;;;;;5093136;28;20474;-61
2023/06/02 14:02:33;;;;;;;7.35;2.78;;;15.60;96.20;;;;;;5092762;28;20063;-61
2023/06/02 14:04:59;;;;;;;15.77;3.03;;;15.40;95.80;;;;;;5095966;28;20039;-62
2023/06/02 14:07:25;;;;;;;;;;;15.40;97.40;;;;;;5098024;28;20575;-60
2023/06/02 14:09:50;;;;;;;13.65;2.53;;;15.30;96.50;;;;;;5092771;28;20423;-60
2023/06/02 14:12:16;;;;;;;;;;;15.20;95.20;;;;;;5098011;28;20558;-63
2023/06/02 14:14:41;;;;;;;10.35;3.40;;;15.10;94.90;;;;;;5092841;28;19924;-60
2023/06/02 14:17:07;;;;;;;;;;;15.00;95.50;;;;;;5100253;28;20039;-61
2023/06/02 14:19:32;;;;;;;10.75;3.13;;;15.20;97.30;;;;;;5097621;28;19924;-61
2023/06/02 14:21:58;;;;;;;9.57;2.55;;;15.30;96.50;;;;;;5095285;28;20043;-60
2023/06/02 14:24:24;;;;;;;7.68;2.75;;;15.40;96.50;;;;;;5088952;28;20131;-60